CheckWX is a tool to help pilots better visualize weather data.  It is not intended as a substitute for an official pre-flight weather briefing.

20:16:56 UTC

FAGG METAR
George Airport
George, South Africa
Current

16 mins ago

FAGG 262001Z AUTO 22017KT 200V260 9999 FEW085/// BKN120/// 19/12 Q1014
Observed
May-26 @ 20:01 UTC
Wind
  • 220° at 17 KTS
Visibility
10,000+ meters
Flight Rules
VFR
Cloud Levels
  • Few at 8,500' AGL
  • Broken at 12,000' AGL
Temperature
19°C / 66°F
Dewpoint
12°C / 54°F
Humidity
64%
Altimeter
29.94" Hg
Pressure
1013.92 hPa
Previous

28 mins ago

FAGG 261949Z AUTO 23021KT 9999 FEW100/// BKN120/// 19/12 Q1014
Observed
May-26 @ 19:49 UTC
Wind
  • 230° at 21 KTS
Visibility
10,000+ meters
Flight Rules
VFR
Cloud Levels
  • Few at 10,000' AGL
  • Broken at 12,000' AGL
Temperature
19°C / 66°F
Dewpoint
12°C / 54°F
Humidity
64%
Altimeter
29.94" Hg
Pressure
1013.92 hPa
Previous

35 mins ago

FAGG 261942Z AUTO 23019G32KT 210V270 9999 BKN120/// 20/12 Q1014
Observed
May-26 @ 19:42 UTC
Wind
  • 230° at 19 KTS
  • Gusting to 32 KTS
Visibility
10,000+ meters
Flight Rules
VFR
Cloud Levels
  • Broken at 12,000' AGL
Temperature
20°C / 68°F
Dewpoint
12°C / 54°F
Humidity
60%
Altimeter
29.94" Hg
Pressure
1013.92 hPa